Latest Weather Observations for Wadeye (Port Keats)

IDD60801

Issued at 5:31 pm CST Friday 1 July 2016 (issued every 30 minutes, with the page automatically refreshed every 10 minutes)

About weather observations | Map of weather stations | Latest weather observations for NT | Other Formats
Station Details ID: 014948 Name: PORT KEATS AIRPORT Lat: -14.25 Lon: 129.53 Height: 28.0 m
Data from the previous 72 hours. | See also: Recent months at Wadeye (Port Keats)
Date/Time
CST
Temp
°C
App
Temp
°C
Dew
Point
°C
Rel
Hum
%
Delta-T
°C
Wind Press
QNH
hPa
Press
MSL
hPa
Rain since
9am
mm
Dir  Spd
km/h
Gust
km/h
Spd
kts
Gust
kts
01/05:30pm 31.3 28.7 9.5 26 12.3 SE 13 20 7 11 - - 0.0
01/05:00pm 31.8 28.4 9.3 25 12.7 SE 17 24 9 13 - - 0.0
01/04:30pm 32.2 28.6 8.4 23 13.3 SSE 17 26 9 14 - - 0.0
01/04:00pm 32.5 29.4 8.7 23 13.3 SSE 15 20 8 11 - - 0.0
01/03:30pm 32.7 28.7 8.2 22 13.6 SE 19 24 10 13 - - 0.0
01/03:00pm 31.8 27.8 8.1 23 13.1 SSE 19 28 10 15 - - 0.0
01/02:30pm 32.6 29.1 8.8 23 13.4 SSE 17 30 9 16 - - 0.0
01/02:00pm 32.3 28.9 9.2 24 13.0 SE 17 28 9 15 - - 0.0
01/01:30pm 32.4 29.2 9.9 25 12.9 ESE 17 30 9 16 - - 0.0
01/01:00pm 32.4 28.4 9.2 24 13.1 SE 20 32 11 17 - - 0.0
01/12:30pm 31.2 27.8 10.5 28 11.9 SE 19 28 10 15 - - 0.0
01/12:00pm 30.6 27.6 10.5 29 11.5 SSE 17 26 9 14 - - 0.0
01/11:30am 30.3 27.3 10.8 30 11.2 ESE 17 24 9 13 - - 0.0
01/11:00am 29.6 27.1 11.2 32 10.6 ESE 15 22 8 12 - - 0.0
01/10:30am 29.0 27.5 12.0 35 9.9 ESE 11 19 6 10 - - 0.0
01/10:00am 27.7 24.9 11.3 36 9.4 ESE 17 22 9 12 - - 0.0
01/09:30am 26.8 24.9 11.7 39 8.7 SE 13 20 7 11 - - 0.0
01/09:00am 25.6 22.4 9.8 37 8.7 SE 17 20 9 11 - - 0.0
01/08:30am 24.2 21.2 9.4 39 8.0 SE 15 20 8 11 - - 0.0
01/08:00am 23.4 21.6 10.8 45 7.0 SE 11 17 6 9 - - 0.0
01/07:30am 20.9 19.2 12.6 59 4.7 SE 13 17 7 9 - - 0.0
01/07:00am 17.6 17.0 12.3 71 2.9 SSE 7 9 4 5 - - 0.0
01/06:30am 17.8 17.4 12.3 70 3.0 SSE 6 7 3 4 - - 0.0
01/06:00am 18.4 17.9 12.2 67 3.4 SSE 6 7 3 4 - - 0.0
01/05:30am 19.7 19.2 12.0 61 4.3 SSE 6 9 3 5 - - 0.0
01/05:00am 19.4 19.0 12.4 64 3.9 SSE 6 9 3 5 - - 0.0
01/04:30am 20.4 19.0 12.1 59 4.6 SE 11 13 6 7 - - 0.0
01/04:00am 22.2 20.9 12.5 54 5.5 SE 11 13 6 7 - - 0.0
01/03:30am 21.1 19.7 12.3 57 5.0 SSE 11 15 6 8 - - 0.0
01/03:00am 21.8 20.0 12.1 54 5.5 SSE 13 15 7 8 - - 0.0
01/02:30am 19.9 19.3 12.4 62 4.2 S 7 9 4 5 - - 0.0
01/02:00am 20.0 19.1 12.5 62 4.2 SSE 9 11 5 6 - - 0.0
01/01:30am 19.9 19.0 12.7 63 4.1 SSE 9 11 5 6 - - 0.0
01/01:00am 20.5 19.7 13.0 62 4.3 SSE 9 13 5 7 - - 0.0
01/12:30am 18.9 18.4 13.7 72 3.0 SSE 9 11 5 6 - - 0.0
01/12:00am 18.2 18.3 14.5 79 2.1 SSE 7 11 4 6 - - 0.0
 
Date/Time
CST
Temp
°C
App
Temp
°C
Dew
Point
°C
Rel
Hum
%
Delta-T
°C
Wind Press
QNH
hPa
Press
MSL
hPa
Rain since
9am
mm
Dir  Spd
km/h
Gust
km/h
Spd
kts
Gust
kts
30/11:30pm 18.1 18.3 14.6 80 2.0 SSE 7 9 4 5 - - 0.0
30/11:00pm 18.2 19.6 14.5 79 2.1 CALM 0 0 0 0 - - 0.0
30/10:30pm 18.7 20.3 14.8 78 2.3 CALM 0 0 0 0 - - 0.0
30/10:00pm 19.1 20.8 15.2 78 2.3 CALM 0 0 0 0 - - 0.0
30/09:30pm 19.8 21.4 15.0 74 2.8 CALM 0 0 0 0 - - 0.0
30/09:00pm 21.1 22.9 15.6 71 3.3 CALM 0 0 0 0 - - 0.0
30/08:30pm 21.1 21.9 15.9 72 3.1 S 6 9 3 5 - - 0.0
30/08:00pm 21.9 23.2 16.2 70 3.4 S 4 9 2 5 - - 0.0
30/07:30pm 22.9 24.6 16.2 66 4.1 S 2 7 1 4 - - 0.0
30/07:00pm 24.7 26.8 16.2 59 5.2 CALM 0 0 0 0 - - 0.0
30/06:30pm 26.8 28.2 15.5 50 6.9 NW 2 9 1 5 - - 0.0
30/06:00pm 28.7 30.3 14.9 43 8.4 CALM 0 7 0 4 - - 0.0
30/05:30pm 29.8 30.5 15.5 42 8.8 WNW 6 9 3 5 - - 0.0
30/05:00pm 32.0 31.3 10.1 26 12.5 ESE 4 13 2 7 - - 0.0
30/04:30pm 31.8 29.6 9.3 25 12.7 SSE 11 15 6 8 - - 0.0
30/04:00pm 32.3 30.1 9.2 24 13.0 SE 11 17 6 9 - - 0.0
30/03:30pm 31.9 30.4 10.6 27 12.3 E 9 13 5 7 - - 0.0
30/03:00pm 32.0 30.8 11.7 28 11.9 ESE 9 15 5 8 - - 0.0
30/02:30pm 31.4 30.5 11.2 29 11.7 ESE 7 13 4 7 - - 0.0
30/02:00pm 30.9 28.8 11.3 30 11.4 ENE 13 17 7 9 - - 0.0
30/01:30pm 30.1 28.1 11.6 32 10.7 E 13 17 7 9 - - 0.0
30/01:00pm 29.3 26.0 10.9 32 10.5 E 19 28 10 15 - - 0.0
30/12:30pm 29.2 25.9 10.8 32 10.5 E 19 28 10 15 - - 0.0
30/12:00pm 28.8 25.5 10.9 33 10.2 E 19 26 10 14 - - 0.0
30/11:30am 28.6 25.6 10.8 33 10.1 E 17 24 9 13 - - 0.0
30/11:00am 28.7 25.6 10.4 32 10.4 E 17 24 9 13 - - 0.0
30/10:30am 27.3 24.5 8.7 31 10.2 ESE 13 20 7 11 - - 0.0
30/10:00am 25.7 22.5 6.8 30 9.9 ESE 13 17 7 9 - - 0.0
30/09:30am 24.8 21.0 4.0 26 10.3 SE 13 19 7 10 - - 0.0
30/09:00am 24.3 20.3 3.0 25 10.3 SE 13 19 7 10 - - 0.0
30/08:30am 23.5 19.5 2.9 26 9.9 SSE 13 15 7 8 - - 0.0
30/08:00am 21.7 18.1 2.9 29 8.9 SSE 11 15 6 8 - - 0.0
30/07:30am 22.1 18.0 2.2 27 9.3 SE 13 17 7 9 - - 0.0
30/07:00am 21.9 17.8 2.1 27 9.3 SSE 13 17 7 9 - - 0.0
30/06:30am 22.3 18.6 2.4 27 9.4 SE 11 17 6 9 - - 0.0
30/06:00am 21.8 18.3 3.5 30 8.8 SSE 11 15 6 8 - - 0.0
30/05:30am 20.0 17.7 5.6 39 7.1 S 7 13 4 7 - - 0.0
30/05:00am 18.8 16.8 6.9 46 6.0 SSW 7 11 4 6 - - 0.0
30/04:30am 20.0 17.9 6.7 42 6.7 S 7 9 4 5 - - 0.0
30/04:00am 21.5 19.3 6.2 37 7.7 S 7 11 4 6 - - 0.0
30/03:30am 22.1 19.2 6.7 37 7.9 S 11 17 6 9 - - 0.0
30/03:00am 21.9 19.2 5.8 35 8.1 S 9 15 5 8 - - 0.0
30/02:30am 22.2 19.1 5.6 34 8.3 S 11 19 6 10 - - 0.0
30/02:00am 22.3 19.5 5.3 33 8.5 S 9 15 5 8 - - 0.0
30/01:30am 22.9 19.7 4.9 31 8.9 S 11 19 6 10 - - 0.0
30/01:00am 22.9 19.3 4.9 31 8.9 SSE 13 17 7 9 - - 0.0
30/12:30am 23.9 20.2 4.3 28 9.7 SSE 13 19 7 10 - - 0.0
30/12:00am 24.1 20.0 4.5 28 9.7 SSE 15 19 8 10 - - 0.0
 
Date/Time
CST
Temp
°C
App
Temp
°C
Dew
Point
°C
Rel
Hum
%
Delta-T
°C
Wind Press
QNH
hPa
Press
MSL
hPa
Rain since
9am
mm
Dir  Spd
km/h
Gust
km/h
Spd
kts
Gust
kts
29/11:30pm 23.9 20.3 4.8 29 9.5 S 13 17 7 9 - - 0.0
29/11:00pm 24.0 20.9 5.4 30 9.4 S 11 19 6 10 - - 0.0
29/10:30pm 23.9 21.0 6.7 33 8.9 S 11 19 6 10 - - 0.0
29/10:00pm 23.6 21.2 8.5 38 8.1 S 11 15 6 8 - - 0.0
29/09:30pm 23.0 21.1 10.4 45 6.9 S 11 15 6 8 - - 0.0
29/09:00pm 22.6 21.6 12.3 52 5.8 S 9 13 5 7 - - 0.0
29/08:30pm 23.0 22.1 12.6 52 5.9 SSW 9 15 5 8 - - 0.0
29/08:00pm 23.4 22.3 12.1 49 6.4 SSW 9 15 5 8 - - 0.0
29/07:30pm 23.9 22.7 11.6 46 6.9 SSW 9 13 5 7 - - 0.0
29/07:00pm 24.5 23.3 10.4 41 7.8 SSW 7 9 4 5 - - 0.0
29/06:30pm 26.0 24.4 8.9 34 9.3 SSW 7 13 4 7 - - 0.0
29/06:00pm 27.8 26.0 7.1 27 11.0 SSW 6 11 3 6 - - 0.0
29/05:30pm 29.0 26.5 6.4 24 12.0 S 9 13 5 7 - - 0.0
29/05:00pm 29.5 25.7 5.6 22 12.5 SSE 15 20 8 11 - - 0.0
29/04:30pm 30.6 26.6 5.1 20 13.3 SSE 15 22 8 12 - - 0.0
29/04:00pm 30.5 27.1 5.7 21 13.1 SSE 13 20 7 11 - - 0.0
29/03:30pm 30.8 26.0 4.5 19 13.6 SE 19 28 10 15 - - 0.0
29/03:00pm 31.0 26.7 5.4 20 13.5 SE 17 26 9 14 - - 0.0
29/02:30pm 30.5 26.4 6.4 22 12.9 SE 17 28 9 15 - - 0.0
29/02:00pm 30.5 26.1 6.4 22 12.9 SE 19 26 10 14 - - 0.0
29/01:30pm 31.0 26.7 6.8 22 13.1 ESE 19 30 10 16 - - 0.0
29/01:00pm 30.4 25.8 8.2 25 12.2 SE 22 32 12 17 - - 0.0
29/12:30pm 29.6 25.1 6.9 24 12.2 E 20 33 11 18 - - 0.0
29/12:00pm 29.7 25.8 8.7 27 11.6 ESE 19 30 10 16 - - 0.0
29/11:30am 28.2 23.7 8.5 29 10.8 ESE 22 33 12 18 - - 0.0
29/11:00am 27.3 23.1 8.2 30 10.3 ESE 20 32 11 17 - - 0.0
29/10:30am 26.7 22.6 8.6 32 9.8 ESE 20 37 11 20 - - 0.0
29/10:00am 25.5 20.7 8.9 35 9.0 ESE 24 35 13 19 - - 0.0
29/09:30am 24.7 20.2 8.6 36 8.7 ESE 22 35 12 19 - - 0.0
29/09:00am 24.2 20.2 9.0 38 8.2 ESE 20 32 11 17 - - 0.0
29/08:30am 23.3 20.2 9.0 40 7.7 ESE 15 24 8 13 - - 0.0
29/08:00am 22.8 19.8 9.2 42 7.3 ESE 15 22 8 12 - - 0.0
29/07:30am 22.4 19.4 9.2 43 7.1 ESE 15 24 8 13 - - 0.0
29/07:00am 22.6 19.0 9.7 44 7.0 ESE 19 28 10 15 - - 0.0
29/06:30am 22.5 19.3 10.0 45 6.8 SE 17 24 9 13 - - 0.0
29/06:00am 23.0 19.4 9.8 43 7.2 ESE 19 26 10 14 - - 0.0
29/05:30am 23.3 20.1 10.0 43 7.3 ESE 17 28 9 15 - - 0.0
29/05:00am 23.6 20.6 10.6 44 7.2 SE 17 28 9 15 - - 0.0
29/04:30am 23.7 20.8 11.1 45 7.0 SE 17 24 9 13 - - 0.0
29/04:00am 23.9 21.5 11.3 45 7.1 SE 15 20 8 11 - - 0.0
29/03:30am 24.2 21.4 11.5 45 7.2 SE 17 22 9 12 - - 0.0
29/03:00am 24.7 21.6 11.6 44 7.4 SE 19 26 10 14 - - 0.0
29/02:30am 24.7 21.6 11.6 44 7.4 SE 19 24 10 13 - - 0.0
29/02:00am 25.0 22.0 11.9 44 7.5 SE 19 28 10 15 - - 0.0
29/01:30am 25.4 22.9 12.3 44 7.5 SE 17 22 9 12 - - 0.0
29/01:00am 24.3 23.2 13.2 50 6.4 SSE 11 15 6 8 - - 0.0
29/12:30am 22.7 22.1 13.5 56 5.3 SSE 9 13 5 7 - - 0.0
29/12:00am 23.0 22.4 13.5 55 5.5 S 9 13 5 7 - - 0.0
 
Date/Time
CST
Temp
°C
App
Temp
°C
Dew
Point
°C
Rel
Hum
%
Delta-T
°C
Wind Press
QNH
hPa
Press
MSL
hPa
Rain since
9am
mm
Dir  Spd
km/h
Gust
km/h
Spd
kts
Gust
kts
28/11:30pm 23.4 22.9 13.8 54 5.6 S 9 15 5 8 - - 0.0
28/11:00pm 23.8 23.2 13.4 52 6.0 SSE 9 11 5 6 - - 0.0
28/10:30pm 24.6 23.7 13.8 51 6.3 SSE 11 13 6 7 - - 0.0
28/10:00pm 24.2 24.1 14.0 53 6.0 S 7 11 4 6 - - 0.0
28/09:30pm 23.8 23.9 13.9 54 5.8 S 6 7 3 4 - - 0.0
28/09:00pm 25.7 25.2 13.9 48 7.0 SE 9 13 5 7 - - 0.0
28/08:30pm 27.5 26.8 14.2 44 8.0 SE 11 13 6 7 - - 0.0
28/08:00pm 28.0 27.0 13.5 41 8.6 SE 11 13 6 7 - - 0.0
28/07:30pm 26.2 26.5 15.0 50 6.8 SE 7 9 4 5 - - 0.0
28/07:00pm 27.3 28.7 14.3 45 7.8 CALM 0 0 0 0 - - 0.0
28/06:30pm 29.0 29.9 14.0 39 9.0 SSE 2 7 1 4 - - 0.0
28/06:00pm 30.8 29.7 13.1 34 10.6 SE 11 13 6 7 - - 0.0

Other Formats:

Comma delimited format used in spreadsheet applications
http://www.bom.gov.au/fwo/IDD60801/IDD60801.95111.axf

JavaScript Object Notation format (JSON) in row-major order
http://www.bom.gov.au/fwo/IDD60801/IDD60801.95111.json